Map

Track Data

SID SEASON NUMBER BASIN SUBBASIN NAME ISO_TIME NATURE LAT LON WMO_WIND WMO_PRES WMO_AGENCY TRACK_TYPE DIST2LAND LANDFALL IFLAG USA_AGENCY USA_ATCF_ID USA_LAT USA_LON USA_RECORD USA_STATUS USA_WIND USA_PRES USA_SSHS USA_R34_NE USA_R34_SE USA_R34_SW USA_R34_NW USA_R50_NE USA_R50_SE USA_R50_SW USA_R50_NW USA_R64_NE USA_R64_SE USA_R64_SW USA_R64_NW USA_POCI USA_ROCI USA_RMW USA_EYE TOKYO_LAT TOKYO_LON TOKYO_GRADE TOKYO_WIND TOKYO_PRES TOKYO_R50_DIR TOKYO_R50_LONG TOKYO_R50_SHORT TOKYO_R30_DIR TOKYO_R30_LONG TOKYO_R30_SHORT TOKYO_LAND CMA_LAT CMA_LON CMA_CAT CMA_WIND CMA_PRES HKO_LAT HKO_LON HKO_CAT HKO_WIND HKO_PRES NEWDELHI_LAT NEWDELHI_LON NEWDELHI_GRADE NEWDELHI_WIND NEWDELHI_PRES NEWDELHI_CI NEWDELHI_DP NEWDELHI_POCI REUNION_LAT REUNION_LON REUNION_TYPE REUNION_WIND REUNION_PRES REUNION_TNUM REUNION_CI REUNION_RMW REUNION_R34_NE REUNION_R34_SE REUNION_R34_SW REUNION_R34_NW REUNION_R50_NE REUNION_R50_SE REUNION_R50_SW REUNION_R50_NW REUNION_R64_NE REUNION_R64_SE REUNION_R64_SW REUNION_R64_NW BOM_LAT BOM_LON BOM_TYPE BOM_WIND BOM_PRES BOM_TNUM BOM_CI BOM_RMW BOM_R34_NE BOM_R34_SE BOM_R34_SW BOM_R34_NW BOM_R50_NE BOM_R50_SE BOM_R50_SW BOM_R50_NW BOM_R64_NE BOM_R64_SE BOM_R64_SW BOM_R64_NW BOM_ROCI BOM_POCI BOM_EYE BOM_POS_METHOD BOM_PRES_METHOD NADI_LAT NADI_LON NADI_CAT NADI_WIND NADI_PRES WELLINGTON_LAT WELLINGTON_LON WELLINGTON_WIND WELLINGTON_PRES DS824_LAT DS824_LON DS824_STAGE DS824_WIND DS824_PRES TD9636_LAT TD9636_LON TD9636_STAGE TD9636_WIND TD9636_PRES TD9635_LAT TD9635_LON TD9635_WIND TD9635_PRES TD9635_ROCI NEUMANN_LAT NEUMANN_LON NEUMANN_CLASS NEUMANN_WIND NEUMANN_PRES MLC_LAT MLC_LON MLC_CLASS MLC_WIND MLC_PRES USA_GUST BOM_GUST BOM_GUST_PER REUNION_GUST REUNION_GUST_PER USA_SEAHGT USA_SEARAD_NE USA_SEARAD_SE USA_SEARAD_SW USA_SEARAD_NW STORM_SPEED STORM_DIR
1887201N12302 1887 25 NA NA NOT_NAMED 1887-07-20 00:00:00 TS 12.0000 -57.6000 60 hurdat_atl main 398 328 O_____________ hurdat_atl AL041887 12.0000 -57.6000 TS 60 0 15 273
1887201N12302 1887 25 NA NA NOT_NAMED 1887-07-20 03:00:00 TS 12.0402 -58.3701 main 318 284 P_____________ AL041887 12.0402 -58.3701 TS 60 0 13 278
1887201N12302 1887 25 NA NA NOT_NAMED 1887-07-20 06:00:00 TS 12.1857 -58.9143 60 hurdat_atl main 284 235 O____________O hurdat_atl AL041887 12.1000 -59.2000 TS 60 0 12.7000 -57.2000 TS 35 13 282
1887201N12302 1887 25 NA CS NOT_NAMED 1887-07-20 09:00:00 TS 12.3117 -59.6819 main 228 205 P____________P AL041887 12.1926 -60.1149 TS 60 0 12.7879 -57.9500 TS 37 15 281
1887201N12302 1887 25 NA CS NOT_NAMED 1887-07-20 12:00:00 TS 12.4636 -60.3727 60 hurdat_atl main 211 204 O____________O hurdat_atl AL041887 12.3000 -61.0000 TS 60 0 12.9000 -58.7000 TS 40 13 284
1887201N12302 1887 25 NA CS NOT_NAMED 1887-07-20 15:00:00 TS 12.6164 -60.9800 main 212 212 P____________P AL041887 12.3997 -61.7450 TS 60 0 13.0498 -59.4500 TS 42 13 282
1887201N12302 1887 25 NA CS NOT_NAMED 1887-07-20 18:00:00 TS 12.7333 -61.6667 60 hurdat_atl main 223 223 O____________O hurdat_atl AL041887 12.5000 -62.4000 TS 60 0 13.2000 -60.2000 TS 45 13 279
1887201N12302 1887 25 NA CS NOT_NAMED 1887-07-20 21:00:00 TS 12.8331 -62.3218 main 235 235 P____________P AL041887 12.5997 -63.0076 TS 60 0 13.2998 -60.9502 TS 45 13 279
1887201N12302 1887 25 NA CS NOT_NAMED 1887-07-21 00:00:00 TS 12.9333 -62.9667 60 hurdat_atl main 246 246 O____________O hurdat_atl AL041887 12.7000 -63.6000 TS 60 0 13.4000 -61.7000 TS 45 13 279
1887201N12302 1887 25 NA CS NOT_NAMED 1887-07-21 03:00:00 TS 13.0448 -63.6401 main 263 263 P____________P AL041887 12.7923 -64.2351 TS 65 1 13.5498 -62.4500 TS 45 14 280
1887201N12302 1887 25 NA CS NOT_NAMED 1887-07-21 06:00:00 TS 13.1667 -64.3333 70 hurdat_atl main 291 291 O____________O hurdat_atl AL041887 12.9000 -64.9000 HU 70 1 13.7000 -63.2000 TS 45 14 281
1887201N12302 1887 25 NA CS NOT_NAMED 1887-07-21 09:00:00 TS 13.2999 -65.0500 main 317 311 P____________P AL041887 13.0499 -65.5999 HU 72 1 13.7998 -63.9502 TS 45 14 281
1887201N12302 1887 25 NA CS NOT_NAMED 1887-07-21 12:00:00 TS 13.4333 -65.7667 75 hurdat_atl main 314 314 O____________O hurdat_atl AL041887 13.2000 -66.3000 HU 75 1 13.9000 -64.7000 TS 45 14 280
1887201N12302 1887 25 NA CS NOT_NAMED 1887-07-21 15:00:00 TS 13.5498 -66.4551 main 324 308 P____________P AL041887 13.2998 -66.9577 HU 75 1 14.0498 -65.4499 TS 45 14 280
1887201N12302 1887 25 NA CS NOT_NAMED 1887-07-21 18:00:00 TS 13.6667 -67.1333 75 hurdat_atl main 313 288 O____________O hurdat_atl AL041887 13.4000 -67.6000 HU 75 1 14.2000 -66.2000 TS 45 13 280
1887201N12302 1887 25 NA CS NOT_NAMED 1887-07-21 21:00:00 TS 13.7948 -67.8167 main 289 252 P____________P AL041887 13.5423 -68.2500 HU 77 1 14.2998 -66.9502 TS 45 14 281
1887201N12302 1887 25 NA CS NOT_NAMED 1887-07-22 00:00:00 TS 13.9333 -68.5000 80 hurdat_atl main 252 234 O____________O hurdat_atl AL041887 13.7000 -68.9000 HU 80 1 14.4000 -67.7000 TS 45 14 282
1887201N12302 1887 25 NA CS NOT_NAMED 1887-07-22 03:00:00 TS 14.0882 -69.1883 main 236 228 P____________P AL041887 13.8574 -69.5575 HU 80 1 14.5498 -68.4499 TS 45 14 283
1887201N12302 1887 25 NA CS NOT_NAMED 1887-07-22 06:00:00 TS 14.2333 -69.8667 80 hurdat_atl main 235 235 O____________O hurdat_atl AL041887 14.0000 -70.2000 HU 80 1 14.7000 -69.2000 TS 45 13 281
1887201N12302 1887 25 NA CS NOT_NAMED 1887-07-22 09:00:00 TS 14.3381 -70.5218 main 238 228 P____________P AL041887 14.1073 -70.8076 HU 82 1 14.7998 -69.9502 TS 45 13 279
1887201N12302 1887 25 NA CS NOT_NAMED 1887-07-22 12:00:00 TS 14.4333 -71.1667 85 hurdat_atl main 226 226 O____________O hurdat_atl AL041887 14.2000 -71.4000 HU 85 2 14.9000 -70.7000 TS 45 13 280
1887201N12302 1887 25 NA CS NOT_NAMED 1887-07-22 15:00:00 TS 14.5498 -71.8167 main 235 235 P____________P AL041887 14.2998 -72.0001 HU 85 2 15.0498 -71.4499 TS 45 13 281
1887201N12302 1887 25 NA CS NOT_NAMED 1887-07-22 18:00:00 TS 14.6667 -72.4667 85 hurdat_atl main 271 271 O____________O hurdat_atl AL041887 14.4000 -72.6000 HU 85 2 15.2000 -72.2000 TS 45 13 280
1887201N12302 1887 25 NA CS NOT_NAMED 1887-07-22 21:00:00 TS 14.7715 -73.1167 main 304 304 P____________P AL041887 14.5073 -73.2000 HU 85 2 15.2998 -72.9502 TS 47 13 279
1887201N12302 1887 25 NA CS NOT_NAMED 1887-07-23 00:00:00 TS 14.8667 -73.7667 85 hurdat_atl main 346 346 O____________O hurdat_atl AL041887 14.6000 -73.8000 HU 85 2 15.4000 -73.7000 TS 50 13 278
1887201N12302 1887 25 NA CS NOT_NAMED 1887-07-23 03:00:00 TS 14.9448 -74.4118 main 351 341 P____________P AL041887 14.6422 -74.3778 HU 85 2 15.5500 -74.4799 TS 50 13 278
1887201N12302 1887 25 NA CS NOT_NAMED 1887-07-23 06:00:00 TS 15.0333 -75.0667 85 hurdat_atl main 345 306 O____________O hurdat_atl AL041887 14.7000 -75.0000 HU 85 2 15.7000 -75.2000 TS 50 13 280
1887201N12302 1887 25 NA CS NOT_NAMED 1887-07-23 09:00:00 TS 15.1667 -75.7649 main 305 281 P____________P AL041887 14.8503 -75.7722 HU 85 2 15.7994 -75.7503 TS 52 13 281
1887201N12302 1887 25 NA CS NOT_NAMED 1887-07-23 12:00:00 TS 15.3000 -76.4333 85 hurdat_atl main 281 258 O____________O hurdat_atl AL041887 15.0000 -76.5000 HU 85 2 15.9000 -76.3000 TS 55 12 280
1887201N12302 1887 25 NA CS NOT_NAMED 1887-07-23 15:00:00 TS 15.3804 -76.9811 main 258 248 P____________P AL041887 15.0568 -76.9578 HU 85 2 16.0276 -77.0276 TS 57 11 279
1887201N12302 1887 25 NA CS NOT_NAMED 1887-07-23 18:00:00 TS 15.4667 -77.5333 85 hurdat_atl main 248 248 O____________O hurdat_atl AL041887 15.1000 -77.4000 HU 85 2 16.2000 -77.8000 TS 60 12 281
1887201N12302 1887 25 NA CS NOT_NAMED 1887-07-23 21:00:00 TS 15.6041 -78.2059 main 258 257 P____________P AL041887 15.1850 -78.0551 HU 85 2 16.4422 -78.5075 TS 60 14 283
1887201N12302 1887 25 NA CS NOT_NAMED 1887-07-24 00:00:00 TS 15.7667 -78.9333 85 hurdat_atl main 267 267 O____________O hurdat_atl AL041887 15.3000 -78.8000 HU 85 2 16.7000 -79.2000 TS 60 14 283
1887201N12302 1887 25 NA CS NOT_NAMED 1887-07-24 03:00:00 TS 15.9182 -79.6644 main 292 287 P____________P AL041887 15.4274 -79.5502 HU 85 2 16.8997 -79.8928 TS 60 15 283
1887201N12302 1887 25 NA CS NOT_NAMED 1887-07-24 06:00:00 TS 16.1000 -80.4000 85 hurdat_atl main 314 267 O____________O hurdat_atl AL041887 15.6000 -80.3000 HU 85 2 17.1000 -80.6000 TS 60 14 287
1887201N12302 1887 25 NA CS NOT_NAMED 1887-07-24 09:00:00 TS 16.3242 -81.0771 main 258 224 P____________P AL041887 15.8114 -80.9407 HU 85 2 17.3499 -81.3500 TS 62 15 290
1887201N12302 1887 25 NA CS NOT_NAMED 1887-07-24 12:00:00 TS 16.6000 -81.8333 85 hurdat_atl main 224 188 O____________O hurdat_atl AL041887 16.1000 -81.7000 HU 85 2 17.6000 -82.1000 HU 65 18 289
1887201N12302 1887 25 NA CS NOT_NAMED 1887-07-24 15:00:00 TS 16.9090 -82.8282 main 190 165 P____________P AL041887 16.4637 -82.8421 HU 85 2 17.7996 -82.8004 HU 70 20 289
1887201N12302 1887 25 NA CS NOT_NAMED 1887-07-24 18:00:00 TS 17.2667 -83.8333 85 hurdat_atl main 176 170 O____________O hurdat_atl AL041887 16.9000 -84.0000 HU 85 2 18.0000 -83.5000 HU 75 19 293
1887201N12302 1887 25 NA CS NOT_NAMED 1887-07-24 21:00:00 TS 17.6506 -84.6834 main 201 201 P____________P AL041887 17.3844 -84.8700 HU 85 2 18.1829 -84.3102 HU 80 17 300
1887201N12302 1887 25 NA CS NOT_NAMED 1887-07-25 00:00:00 TS 18.1000 -85.3333 85 hurdat_atl main 246 200 O____________O hurdat_atl AL041887 17.9000 -85.5000 HU 85 2 18.5000 -85.0000 HU 85 14 314
1887201N12302 1887 25 NA CS NOT_NAMED 1887-07-25 03:00:00 TS 18.6145 -85.7298 main 200 150 P____________P AL041887 18.3770 -85.9108 HU 85 2 19.0895 -85.3678 HU 85 13 330
1887201N12302 1887 25 NA CS NOT_NAMED 1887-07-25 06:00:00 TS 19.2000 -86.0000 85 hurdat_atl main 150 117 O____________O hurdat_atl AL041887 18.9000 -86.2000 HU 85 2 19.8000 -85.6000 HU 85 14 334
1887201N12302 1887 25 NA CS NOT_NAMED 1887-07-25 09:00:00 TS 19.8350 -86.3533 main 109 39 P____________P AL041887 19.5276 -86.5798 HU 85 2 20.4499 -85.9002 HU 87 15 334
1887201N12302 1887 25 NA CS NOT_NAMED 1887-07-25 12:00:00 TS 20.5000 -86.6667 85 hurdat_atl main 39 0 O____________O hurdat_atl AL041887 20.2000 -86.9000 HU 85 2 21.1000 -86.2000 HU 90 14 339
1887201N12302 1887 25 NA NA NOT_NAMED 1887-07-25 15:00:00 TS 21.1549 -86.8969 main 0 0 P____________P AL041887 20.8574 -87.0953 HU 80 1 21.7499 -86.5003 HU 90 14 344
1887201N12302 1887 25 NA GM NOT_NAMED 1887-07-25 18:00:00 TS 21.8000 -87.0667 75 hurdat_atl main 33 33 O____________O hurdat_atl AL041887 21.5000 -87.2000 HU 75 1 22.4000 -86.8000 HU 90 13 347
1887201N12302 1887 25 NA GM NOT_NAMED 1887-07-25 21:00:00 TS 22.4216 -87.2053 main 101 101 P____________P AL041887 22.1075 -87.2578 HU 75 1 23.0499 -87.1003 HU 90 13 349
1887201N12302 1887 25 NA GM NOT_NAMED 1887-07-26 00:00:00 TS 23.0333 -87.3333 75 hurdat_atl main 168 168 O____________O hurdat_atl AL041887 22.7000 -87.3000 HU 75 1 23.7000 -87.4000 HU 90 13 347
1887201N12302 1887 25 NA GM NOT_NAMED 1887-07-26 03:00:00 TS 23.6625 -87.5172 main 246 246 P____________P AL041887 23.3000 -87.3999 HU 75 1 24.3876 -87.7519 HU 90 13 346
1887201N12302 1887 25 NA GM NOT_NAMED 1887-07-26 06:00:00 TS 24.2667 -87.6667 75 hurdat_atl main 312 312 O____________O hurdat_atl AL041887 23.9000 -87.5000 HU 75 1 25.0000 -88.0000 HU 90 12 351
1887201N12302 1887 25 NA GM NOT_NAMED 1887-07-26 09:00:00 TS 24.8100 -87.7061 main 368 368 P____________P AL041887 24.5000 -87.5576 HU 75 1 25.4299 -88.0031 HU 90 11 358
1887201N12302 1887 25 NA GM NOT_NAMED 1887-07-26 12:00:00 TS 25.3333 -87.7000 75 hurdat_atl main 424 372 O____________O hurdat_atl AL041887 25.1000 -87.6000 HU 75 1 25.8000 -87.9000 HU 90 11 359
1887201N12302 1887 25 NA GM NOT_NAMED 1887-07-26 15:00:00 TS 25.8808 -87.7315 main 372 321 P____________P AL041887 25.7000 -87.6648 HU 75 1 26.2425 -87.8648 HU 90 11 358
1887201N12302 1887 25 NA GM NOT_NAMED 1887-07-26 18:00:00 TS 26.4333 -87.7333 75 hurdat_atl main 321 262 O____________O hurdat_atl AL041887 26.3000 -87.7000 HU 75 1 26.7000 -87.8000 HU 90 11 2
1887201N12302 1887 25 NA GM NOT_NAMED 1887-07-26 21:00:00 TS 26.9833 -87.6824 main 262 222 P____________P AL041887 26.9000 -87.6873 HU 75 1 27.1500 -87.6725 HU 90 11 8
1887201N12302 1887 25 NA GM NOT_NAMED 1887-07-27 00:00:00 TS 27.5333 -87.5667 75 hurdat_atl main 222 191 O____________O hurdat_atl AL041887 27.5000 -87.6000 HU 75 1 27.6000 -87.5000 HU 90 11 14
1887201N12302 1887 25 NA GM NOT_NAMED 1887-07-27 03:00:00 TS 28.0834 -87.3842 main 191 183 P____________P AL041887 28.1000 -87.4226 HU 75 1 28.0500 -87.3074 HU 90 12 18
1887201N12302 1887 25 NA GM NOT_NAMED 1887-07-27 06:00:00 TS 28.6333 -87.1667 75 hurdat_atl main 183 124 O____________O hurdat_atl AL041887 28.7000 -87.2000 HU 75 1 28.5000 -87.1000 HU 90 12 18
1887201N12302 1887 25 NA GM NOT_NAMED 1887-07-27 09:00:00 TS 29.1919 -86.9641 main 124 77 P____________P AL041887 29.3204 -86.9999 HU 75 1 28.9350 -86.8923 HU 92 12 18
1887201N12302 1887 25 NA GM NOT_NAMED 1887-07-27 12:00:00 TS 29.7333 -86.7667 75 hurdat_atl main 77 22 O____________O hurdat_atl AL041887 29.9000 -86.8000 HU 75 1 29.4000 -86.7000 HU 95 11 17
1887201N12302 1887 25 NA GM NOT_NAMED 1887-07-27 15:00:00 TS 30.2625 -86.5833 75 hurdat_atl main 11 0 O____________P hurdat_atl AL041887 30.4000 -86.6000 L HU 75 1 29.9874 -86.5500 HU 97 11 20
1887201N12302 1887 25 NA NA NOT_NAMED 1887-07-27 18:00:00 TS 30.7667 -86.3333 65 hurdat_atl main 0 0 O____________O hurdat_atl AL041887 30.9000 -86.3000 HU 65 1 30.5000 -86.4000 MH 100 10 26
1887201N12302 1887 25 NA NA NOT_NAMED 1887-07-27 21:00:00 TS 31.1402 -86.0909 main 0 0 P____________P AL041887 31.3340 -86.0328 HU 57 0 30.7525 -86.2072 MH 82 8 31
1887201N12302 1887 25 NA NA NOT_NAMED 1887-07-28 00:00:00 TS 31.4333 -85.8667 50 hurdat_atl main 0 0 O____________O hurdat_atl AL041887 31.7000 -85.8000 TS 50 0 30.9000 -86.0000 HU 65 7 33
1887201N12302 1887 25 NA NA NOT_NAMED 1887-07-28 03:00:00 TS 31.7149 -85.6615 main 0 0 P____________P AL041887 32.0224 -85.5922 TS 45 0 31.1000 -85.7999 HU 57 6 33
1887201N12302 1887 25 NA NA NOT_NAMED 1887-07-28 06:00:00 TS 31.9667 -85.4667 40 hurdat_atl main 0 0 O____________O hurdat_atl AL041887 32.3000 -85.4000 TS 40 0 31.3000 -85.6000 TS 50 6 34
1887201N12302 1887 25 NA NA NOT_NAMED 1887-07-28 09:00:00 TS 32.1924 -85.2763 main 0 0 P____________P AL041887 32.5349 -85.2145 TS 37 0 31.5075 -85.4000 TS 45 5 40
1887201N12302 1887 25 NA NA NOT_NAMED 1887-07-28 12:00:00 TS 32.3600 -85.0800 35 hurdat_atl main 0 0 O____________O hurdat_atl AL041887 32.8000 -85.0000 TS 35 0 31.7000 -85.2000 TS 40 5 47
1887201N12302 1887 25 NA NA NOT_NAMED 1887-07-28 15:00:00 TS 32.5201 -84.8679 main 0 0 P____________P AL041887 33.1677 -84.7209 TS 32 -1 31.8724 -85.0149 TS 37 4 64
1887201N12302 1887 25 NA NA NOT_NAMED 1887-07-28 18:00:00 TS 32.5333 -84.6667 30 hurdat_atl main 0 0 O____________O hurdat_atl AL041887 33.6000 -84.4000 TD 30 -1 32.0000 -84.8000 TS 35 5 148
1887201N12302 1887 25 NA NA NOT_NAMED 1887-07-28 21:00:00 TS 32.0650 -84.5224 main 0 0 _____________P AL041887 TD -1 32.0650 -84.5224 TS 32 6 138
1887201N12302 1887 25 NA NA NOT_NAMED 1887-07-29 00:00:00 TS 32.1000 -84.2000 main 0 0 _____________O 32.1000 -84.2000 TD 30 6 79
1887201N12302 1887 25 NA NA NOT_NAMED 1887-07-29 03:00:00 TS 32.1725 -83.8502 main 0 0 _____________P 32.1725 -83.8502 TD 30 6 80
1887201N12302 1887 25 NA NA NOT_NAMED 1887-07-29 06:00:00 TS 32.2000 -83.5000 main 0 0 _____________O 32.2000 -83.5000 TD 30 6 95
1887201N12302 1887 25 NA NA NOT_NAMED 1887-07-29 09:00:00 TS 32.1224 -83.1923 main 0 0 _____________P 32.1224 -83.1923 TD 30 5 111
1887201N12302 1887 25 NA NA NOT_NAMED 1887-07-29 12:00:00 TS 32.0000 -82.9000 main 0 0 _____________O 32.0000 -82.9000 TD 30 6 112
1887201N12302 1887 25 NA NA NOT_NAMED 1887-07-29 15:00:00 TS 31.9076 -82.5549 main 0 0 _____________P 31.9076 -82.5549 TD 30 5 111
1887201N12302 1887 25 NA NA NOT_NAMED 1887-07-29 18:00:00 TS 31.8000 -82.3000 main 0 0 _____________O 31.8000 -82.3000 TD 30 4 133
1887201N12302 1887 25 NA NA NOT_NAMED 1887-07-29 21:00:00 TS 31.6599 -82.2402 main 0 0 _____________P 31.6599 -82.2402 TD 30 3 0
1887201N12302 1887 25 NA NA NOT_NAMED 1887-07-30 00:00:00 TS 31.5000 -82.3000 main 0 _____________O 31.5000 -82.3000 TD 30 3 198

About IBTrACS Database

This database is a web-friendly format of International Best Track Archive for Climate Stewardship (IBTrACS), a global best track data archive curated by NOAA dating back to 1842.

Updated: 2021-10-08